createdAt,value
2024-01-11T00:00:55.128Z,49.9
2024-01-11T00:02:12.234Z,49.9
2024-01-11T00:03:28.356Z,50.1
2024-01-11T00:04:45.462Z,49.9
2024-01-11T00:06:02.567Z,53.4
2024-01-11T00:07:19.673Z,54.4
2024-01-11T00:08:36.779Z,67
2024-01-11T00:09:53.884Z,50.7
2024-01-11T00:11:10.990Z,50.4
2024-01-11T00:12:28.097Z,50.9
2024-01-11T00:13:45.203Z,53.6
2024-01-11T00:15:02.309Z,50.2
2024-01-11T00:16:19.414Z,51
2024-01-11T00:17:36.520Z,49.9
2024-01-11T00:18:53.626Z,54.1
2024-01-11T00:20:09.748Z,51.8
2024-01-11T00:21:26.854Z,51.5
2024-01-11T00:22:43.959Z,51.5
2024-01-11T00:24:01.065Z,52.3
2024-01-11T00:25:18.171Z,50.4
2024-01-11T00:26:35.277Z,50.4
2024-01-11T00:27:52.383Z,50.5
2024-01-11T00:29:09.488Z,51.8
2024-01-11T00:30:26.594Z,49.3
2024-01-11T00:31:43.700Z,49.7
2024-01-11T00:33:00.805Z,49.4
2024-01-11T00:34:17.911Z,50.1
2024-01-11T00:35:35.017Z,50.4
2024-01-11T00:36:51.139Z,50.2
2024-01-11T00:38:08.245Z,50.2
2024-01-11T00:39:25.350Z,50.7
2024-01-11T00:40:42.456Z,50.4
2024-01-11T00:41:59.563Z,50.4
2024-01-11T00:43:16.668Z,51.2
2024-01-11T00:44:33.774Z,50.7
2024-01-11T00:45:50.880Z,50.9
2024-01-11T00:47:07.985Z,49.3
2024-01-11T00:48:25.092Z,49.6
2024-01-11T00:49:42.197Z,50.4
2024-01-11T00:50:59.303Z,51.5
2024-01-11T00:52:16.409Z,53.9
2024-01-11T00:53:32.531Z,50.4
2024-01-11T00:54:49.637Z,49.9
2024-01-11T00:56:06.743Z,49.9
2024-01-11T00:57:23.849Z,50.2
2024-01-11T00:58:40.955Z,50.5
2024-01-11T00:59:58.061Z,50.4
2024-01-11T01:01:15.167Z,51.2
2024-01-11T01:02:32.273Z,50.9
2024-01-11T01:03:49.379Z,53
2024-01-11T01:05:06.484Z,50.9
2024-01-11T01:06:23.590Z,60.5
2024-01-11T01:07:40.696Z,62.1
2024-01-11T01:08:57.802Z,49.3
2024-01-11T01:10:13.924Z,49.6
2024-01-11T01:11:31.030Z,50.9
2024-01-11T01:12:48.136Z,50.5
2024-01-11T01:14:05.243Z,50.7
2024-01-11T01:15:22.349Z,50.9
2024-01-11T01:16:39.455Z,57
2024-01-11T01:17:56.561Z,51
2024-01-11T01:19:13.667Z,50.7
2024-01-11T01:20:30.773Z,65
2024-01-11T01:21:47.880Z,49.7
2024-01-11T01:23:04.986Z,50.4
2024-01-11T01:24:22.092Z,51.5
2024-01-11T01:25:39.198Z,50.4
2024-01-11T01:26:55.320Z,52.2
2024-01-11T01:28:12.426Z,50.5
2024-01-11T01:29:29.532Z,50.2
2024-01-11T01:30:46.639Z,50.5
2024-01-11T01:32:03.743Z,49.9
2024-01-11T01:33:20.849Z,50.2
2024-01-11T01:34:37.955Z,50.7
2024-01-11T01:35:55.061Z,51
2024-01-11T01:37:12.167Z,65.2
2024-01-11T01:38:29.273Z,52
2024-01-11T01:39:46.380Z,51.5
2024-01-11T01:41:03.486Z,52
2024-01-11T01:42:20.592Z,50.7
2024-01-11T01:43:36.714Z,50.4
2024-01-11T01:44:53.821Z,52.6
2024-01-11T01:46:10.925Z,50.4
2024-01-11T01:47:28.030Z,50.2
2024-01-11T01:48:45.136Z,52.6
2024-01-11T01:50:02.242Z,49.9
2024-01-11T01:51:19.348Z,50.7
2024-01-11T01:52:36.454Z,49.9
2024-01-11T01:53:53.560Z,49.9
2024-01-11T01:55:10.667Z,49.9
2024-01-11T01:56:27.773Z,53
2024-01-11T01:57:44.879Z,67.8
2024-01-11T01:59:01.984Z,50.4
2024-01-11T02:00:18.106Z,49.7
2024-01-11T02:01:35.213Z,50.1
2024-01-11T02:02:52.318Z,50.2
2024-01-11T02:04:09.424Z,50.4
2024-01-11T02:05:26.530Z,51
2024-01-11T02:06:43.637Z,50.4
2024-01-11T02:08:00.743Z,50.7
2024-01-11T02:09:17.849Z,50.4
2024-01-11T02:10:34.955Z,50.7
2024-01-11T02:11:52.062Z,51.5
2024-01-11T02:13:09.168Z,50.9
2024-01-11T02:14:26.274Z,52
2024-01-11T02:15:43.380Z,50.7
2024-01-11T02:16:59.502Z,49.9
2024-01-11T02:18:16.609Z,50.4
2024-01-11T02:19:33.715Z,50.4
2024-01-11T02:20:50.822Z,50.2
2024-01-11T02:22:07.928Z,50.4
2024-01-11T02:23:25.034Z,51.4
2024-01-11T02:24:41.156Z,50.2
2024-01-11T02:25:58.262Z,50.4
2024-01-11T02:27:15.368Z,50.9
2024-01-11T02:28:32.474Z,50.4
2024-01-11T02:29:49.581Z,50.4
2024-01-11T02:31:06.687Z,52.3
2024-01-11T02:32:23.793Z,50.5
2024-01-11T02:33:40.899Z,60.1
2024-01-11T02:34:58.005Z,50.7
2024-01-11T02:36:15.111Z,51.2
2024-01-11T02:37:32.216Z,51.4
2024-01-11T02:38:49.322Z,51.4
2024-01-11T02:40:06.429Z,51
2024-01-11T02:41:22.551Z,52.3
2024-01-11T02:42:39.656Z,51.4
2024-01-11T02:43:56.762Z,53.4
2024-01-11T02:45:13.868Z,51
2024-01-11T02:46:30.975Z,62.6
2024-01-11T02:47:48.081Z,50.5
2024-01-11T02:49:05.187Z,51.4
2024-01-11T02:50:22.294Z,50.5
2024-01-11T02:51:39.401Z,50.4
2024-01-11T02:52:56.507Z,52
2024-01-11T02:54:13.613Z,55.2
2024-01-11T02:55:30.719Z,54.3
2024-01-11T02:56:47.825Z,51.8
2024-01-11T02:58:03.947Z,52
2024-01-11T02:59:21.053Z,52.5
2024-01-11T03:00:38.160Z,51
2024-01-11T03:01:55.266Z,49.6
2024-01-11T03:03:12.372Z,50.4
2024-01-11T03:04:29.478Z,50.4
2024-01-11T03:05:46.584Z,50.4
2024-01-11T03:07:03.690Z,50.9
2024-01-11T03:08:20.797Z,52.5
2024-01-11T03:09:37.903Z,58
2024-01-11T03:10:55.010Z,51.8
2024-01-11T03:12:12.116Z,51.5
2024-01-11T03:13:29.223Z,55.4
2024-01-11T03:14:45.345Z,50.9
2024-01-11T03:16:02.451Z,51.4
2024-01-11T03:17:19.558Z,50.4
2024-01-11T03:18:36.664Z,52
2024-01-11T03:19:53.771Z,52.5
2024-01-11T03:21:10.877Z,65.2
2024-01-11T03:22:27.984Z,57.6
2024-01-11T03:23:45.090Z,53.3
2024-01-11T03:25:02.197Z,51.7
2024-01-11T03:26:19.304Z,56.5
2024-01-11T03:27:36.410Z,54.4
2024-01-11T03:28:53.517Z,53.3
2024-01-11T03:30:10.623Z,65.7
2024-01-11T03:31:26.746Z,60.1
2024-01-11T03:32:43.852Z,59.2
2024-01-11T03:34:00.959Z,51.8
2024-01-11T03:35:18.065Z,52.5
2024-01-11T03:36:35.172Z,50.5
2024-01-11T03:37:52.279Z,53.9
2024-01-11T03:39:09.385Z,57.6
2024-01-11T03:40:26.492Z,68.3
2024-01-11T03:41:43.598Z,65
2024-01-11T03:43:00.705Z,62.3
2024-01-11T03:44:17.811Z,56
2024-01-11T03:45:34.918Z,62.5
2024-01-11T03:46:52.024Z,53.3
2024-01-11T03:48:08.147Z,53
2024-01-11T03:49:25.253Z,60.5
2024-01-11T03:50:42.360Z,52.8
2024-01-11T03:51:59.466Z,63.8
2024-01-11T03:53:16.573Z,52.8
2024-01-11T03:54:33.679Z,54.7
2024-01-11T03:55:50.786Z,51.5
2024-01-11T03:57:07.892Z,51.5
2024-01-11T03:58:24.999Z,52.2
2024-01-11T03:59:42.105Z,65.9
2024-01-11T04:00:59.212Z,58.4
2024-01-11T04:02:16.318Z,53.8
2024-01-11T04:03:33.424Z,53.4
2024-01-11T04:04:49.547Z,65.5
2024-01-11T04:06:06.653Z,60.5
2024-01-11T04:07:23.760Z,59.7
2024-01-11T04:08:40.866Z,53.1
2024-01-11T04:09:57.973Z,53
2024-01-11T04:11:15.079Z,57.6
2024-01-11T04:12:32.186Z,54.3
2024-01-11T04:13:49.292Z,64.6
2024-01-11T04:15:06.399Z,67.9
2024-01-11T04:16:23.505Z,64.4
2024-01-11T04:17:40.611Z,60.9
2024-01-11T04:18:57.718Z,58.8
2024-01-11T04:20:14.825Z,58
2024-01-11T04:21:30.947Z,53.8
2024-01-11T04:22:48.053Z,71.8
2024-01-11T04:24:05.161Z,65
2024-01-11T04:25:22.267Z,70.7
2024-01-11T04:26:39.374Z,55.2
2024-01-11T04:27:56.480Z,70.5
2024-01-11T04:29:13.587Z,69.4
2024-01-11T04:30:30.693Z,59.2
2024-01-11T04:31:47.800Z,70.4
2024-01-11T04:33:04.907Z,64.2
2024-01-11T04:34:22.013Z,59.7
2024-01-11T04:35:39.120Z,59.1
2024-01-11T04:36:56.226Z,65.9
2024-01-11T04:38:12.349Z,64.1
2024-01-11T04:39:29.455Z,68.3
2024-01-11T04:40:46.561Z,70
2024-01-11T04:42:03.668Z,57.6
2024-01-11T04:43:20.775Z,63.6
2024-01-11T04:44:37.881Z,68.9
2024-01-11T04:45:54.987Z,56
2024-01-11T04:47:12.094Z,64.7
2024-01-11T04:48:29.200Z,64.1
2024-01-11T04:49:46.306Z,66.3
2024-01-11T04:51:03.413Z,54.7
2024-01-11T04:52:20.519Z,59.2
2024-01-11T04:53:37.626Z,56.8
2024-01-11T04:54:53.748Z,54.7
2024-01-11T04:56:10.855Z,60.9
2024-01-11T04:57:27.961Z,61.2
2024-01-11T04:58:45.068Z,60.5
2024-01-11T05:00:02.174Z,63.1
2024-01-11T05:01:19.281Z,62.6
2024-01-11T05:02:36.387Z,59.1
2024-01-11T05:03:53.494Z,58.4
2024-01-11T05:05:10.601Z,54.4
2024-01-11T05:06:27.707Z,66
2024-01-11T05:07:44.815Z,58.6
2024-01-11T05:09:01.922Z,60.2
2024-01-11T05:10:19.028Z,63.8
2024-01-11T05:11:35.151Z,67.5
2024-01-11T05:12:52.257Z,64.7
2024-01-11T05:14:09.364Z,63.3
2024-01-11T05:15:26.470Z,72.3
2024-01-11T05:16:43.577Z,65.5
2024-01-11T05:18:00.684Z,66.2
2024-01-11T05:19:17.790Z,60.7
2024-01-11T05:20:34.896Z,66.3
2024-01-11T05:21:52.003Z,57.2
2024-01-11T05:23:09.109Z,67.9
2024-01-11T05:24:26.216Z,68.6
2024-01-11T05:25:43.322Z,68.4
2024-01-11T05:27:00.429Z,58.1
2024-01-11T05:28:16.552Z,66.3
2024-01-11T05:29:33.658Z,67.5
2024-01-11T05:30:50.764Z,63.6
2024-01-11T05:32:07.871Z,66.7
2024-01-11T05:33:24.977Z,62
2024-01-11T05:34:42.084Z,65.5
2024-01-11T05:35:59.190Z,67.5
2024-01-11T05:37:16.297Z,67.6
2024-01-11T05:38:33.404Z,71.8
2024-01-11T05:39:50.510Z,65.7
2024-01-11T05:41:07.616Z,70.8
2024-01-11T05:42:24.723Z,66
2024-01-11T05:43:41.829Z,64.1
2024-01-11T05:44:57.952Z,61.7
2024-01-11T05:46:15.058Z,66.7
2024-01-11T05:47:32.165Z,69.4
2024-01-11T05:48:49.271Z,59.6
2024-01-11T05:50:06.378Z,68.4
2024-01-11T05:51:23.484Z,63.6
2024-01-11T05:52:40.590Z,70.5
2024-01-11T05:53:57.697Z,59.4
2024-01-11T05:55:14.803Z,67.8
2024-01-11T05:56:31.910Z,70.2
2024-01-11T05:57:49.016Z,62.8
2024-01-11T05:59:06.123Z,69.9
2024-01-11T06:00:23.229Z,82
2024-01-11T06:01:39.352Z,81.2
2024-01-11T06:02:56.458Z,81.2
2024-01-11T06:04:13.565Z,66.3
2024-01-11T06:05:30.671Z,70.2
2024-01-11T06:06:47.777Z,67
2024-01-11T06:08:04.884Z,62
2024-01-11T06:09:21.990Z,61
2024-01-11T06:10:39.097Z,68.6
2024-01-11T06:11:56.204Z,69.9
2024-01-11T06:13:13.310Z,68.9
2024-01-11T06:14:30.417Z,67.8
2024-01-11T06:15:47.523Z,67
2024-01-11T06:17:04.630Z,67.9
2024-01-11T06:18:20.752Z,68.9
2024-01-11T06:19:37.859Z,65.9
2024-01-11T06:20:54.965Z,66.3
2024-01-11T06:22:12.072Z,68.9
2024-01-11T06:23:29.178Z,65.2
2024-01-11T06:24:46.285Z,69.1
2024-01-11T06:26:03.391Z,69.7
2024-01-11T06:27:20.498Z,64.1
2024-01-11T06:28:37.604Z,72.8
2024-01-11T06:29:54.711Z,65.2
2024-01-11T06:31:11.817Z,62
2024-01-11T06:32:28.924Z,61.8
2024-01-11T06:33:46.030Z,77
2024-01-11T06:35:02.153Z,66.7
2024-01-11T06:36:19.259Z,66.3
2024-01-11T06:37:36.366Z,65.5
2024-01-11T06:38:53.472Z,66
2024-01-11T06:40:10.579Z,66.5
2024-01-11T06:41:27.685Z,65.2
2024-01-11T06:42:43.808Z,65.2
2024-01-11T06:44:00.914Z,68.8
2024-01-11T06:45:18.021Z,71.5
2024-01-11T06:46:35.128Z,86.2
2024-01-11T06:47:52.234Z,86.5
2024-01-11T06:49:09.341Z,86
2024-01-11T06:50:26.447Z,85.2
2024-01-11T06:51:43.554Z,66.5
2024-01-11T06:53:00.660Z,71.8
2024-01-11T06:54:17.766Z,71.5
2024-01-11T06:55:34.873Z,69.9
2024-01-11T06:56:51.980Z,65.9
2024-01-11T06:58:09.086Z,62.3
2024-01-11T06:59:25.209Z,68.4
2024-01-11T07:00:42.315Z,68.9
2024-01-11T07:01:59.421Z,67.3
2024-01-11T07:03:16.528Z,68.6
2024-01-11T07:04:33.634Z,62.1
2024-01-11T07:05:50.741Z,63.9
2024-01-11T07:07:07.847Z,67
2024-01-11T07:08:24.954Z,67.1
2024-01-11T07:09:42.060Z,70.4
2024-01-11T07:10:59.167Z,66.3
2024-01-11T07:12:16.273Z,69.9
2024-01-11T07:13:33.379Z,69.7
2024-01-11T07:14:50.486Z,60.2
2024-01-11T07:16:06.608Z,60.5
2024-01-11T07:17:23.715Z,65.2
2024-01-11T07:18:40.821Z,61.7
2024-01-11T07:19:57.928Z,62.1
2024-01-11T07:21:15.034Z,71.8
2024-01-11T07:22:32.141Z,65.9
2024-01-11T07:23:49.247Z,62.1
2024-01-11T07:25:06.354Z,65.5
2024-01-11T07:26:23.460Z,67.9
2024-01-11T07:27:40.567Z,68.9
2024-01-11T07:28:57.673Z,66
2024-01-11T07:30:14.780Z,65
2024-01-11T07:31:31.887Z,61.2
2024-01-11T07:32:48.009Z,60.1
2024-01-11T07:34:05.116Z,69.2
2024-01-11T07:35:22.222Z,66.7
2024-01-11T07:36:39.329Z,61
2024-01-11T07:37:56.436Z,67.5
2024-01-11T07:39:13.542Z,67.6
2024-01-11T07:40:30.649Z,70.7
2024-01-11T07:41:47.756Z,61.2
2024-01-11T07:43:04.862Z,62.5
2024-01-11T07:44:21.969Z,66.3
2024-01-11T07:45:39.076Z,71
2024-01-11T07:46:56.182Z,63.6
2024-01-11T07:48:13.289Z,71.3
2024-01-11T07:49:29.411Z,64.1
2024-01-11T07:50:46.518Z,68.3
2024-01-11T07:52:03.624Z,66.8
2024-01-11T07:53:20.731Z,65.4
2024-01-11T07:54:37.838Z,68.4
2024-01-11T07:55:54.944Z,69.1
2024-01-11T07:57:12.052Z,61.7
2024-01-11T07:58:29.158Z,63
2024-01-11T07:59:46.265Z,65.7
2024-01-11T08:01:03.371Z,69.2
2024-01-11T08:02:20.479Z,67.1
2024-01-11T08:03:37.586Z,66.3
2024-01-11T08:04:54.692Z,69.1
2024-01-11T08:06:10.814Z,70.5
2024-01-11T08:07:27.920Z,70.2
2024-01-11T08:08:45.026Z,63.3
2024-01-11T08:10:02.132Z,60.2
2024-01-11T08:11:19.238Z,73.4
2024-01-11T08:12:36.343Z,71
2024-01-11T08:13:53.449Z,68.4
2024-01-11T08:15:10.555Z,71
2024-01-11T08:16:27.661Z,68.9
2024-01-11T08:17:44.767Z,68.4
2024-01-11T08:19:01.873Z,62.3
2024-01-11T08:20:18.978Z,67.8
2024-01-11T08:21:36.083Z,68.6
2024-01-11T08:22:52.205Z,65
2024-01-11T08:24:09.311Z,64.9
2024-01-11T08:25:26.417Z,67
2024-01-11T08:26:43.523Z,62.6
2024-01-11T08:28:00.628Z,68.1
2024-01-11T08:29:17.733Z,60.7
2024-01-11T08:30:34.839Z,61.3
2024-01-11T08:31:51.945Z,67.8
2024-01-11T08:33:09.050Z,63.9
2024-01-11T08:34:26.155Z,64.7
2024-01-11T08:35:43.261Z,67
2024-01-11T08:37:00.366Z,66.3
2024-01-11T08:38:17.471Z,66.8
2024-01-11T08:39:33.592Z,66.7
2024-01-11T08:40:50.697Z,60.1
2024-01-11T08:42:07.802Z,64.6
2024-01-11T08:43:24.907Z,62.6
2024-01-11T08:44:42.012Z,59.1
2024-01-11T08:45:59.117Z,62.6
2024-01-11T08:47:16.222Z,64.1
2024-01-11T08:48:33.327Z,60.2
2024-01-11T08:49:50.432Z,62
2024-01-11T08:51:07.537Z,58.9
2024-01-11T08:52:24.642Z,70.4
2024-01-11T08:53:41.747Z,66
2024-01-11T08:54:58.852Z,63.8
2024-01-11T08:56:14.972Z,66
2024-01-11T08:57:32.075Z,58.6
2024-01-11T08:58:49.180Z,60.5
2024-01-11T09:00:06.285Z,64.9
2024-01-11T09:01:23.389Z,76.8
2024-01-11T09:02:40.494Z,59.4
2024-01-11T09:03:57.599Z,59.1
2024-01-11T09:05:14.703Z,59.4
2024-01-11T09:06:31.808Z,63.4
2024-01-11T09:07:48.912Z,62.1
2024-01-11T09:09:06.017Z,61.2
2024-01-11T09:10:23.121Z,66.8
2024-01-11T09:11:40.226Z,61.3
2024-01-11T09:12:56.347Z,59.4
2024-01-11T09:14:13.451Z,60.4
2024-01-11T09:15:30.556Z,62.3
2024-01-11T09:16:47.661Z,59.6
2024-01-11T09:18:04.765Z,57.8
2024-01-11T09:19:21.870Z,62.6
2024-01-11T09:20:38.976Z,62.6
2024-01-11T09:21:56.081Z,63
2024-01-11T09:23:13.185Z,64.2
2024-01-11T09:24:30.290Z,61.5
2024-01-11T09:25:47.394Z,63.4
2024-01-11T09:27:04.499Z,65.7
2024-01-11T09:28:21.603Z,61.5
2024-01-11T09:29:37.723Z,65.2
2024-01-11T09:30:54.828Z,63.8
2024-01-11T09:32:11.932Z,66.2
2024-01-11T09:33:29.037Z,66.7
2024-01-11T09:34:46.141Z,60.7
2024-01-11T09:36:03.245Z,61.7
2024-01-11T09:37:20.349Z,59.2
2024-01-11T09:38:37.454Z,60.5
2024-01-11T09:39:54.558Z,58.9
2024-01-11T09:41:11.662Z,61.8
2024-01-11T09:42:28.767Z,66
2024-01-11T09:43:45.871Z,67.5
2024-01-11T09:45:02.976Z,70.5
2024-01-11T09:46:19.096Z,63.3
2024-01-11T09:47:36.201Z,60.9
2024-01-11T09:48:53.305Z,60.2
2024-01-11T09:50:10.409Z,57.2
2024-01-11T09:51:27.514Z,61.5
2024-01-11T09:52:44.618Z,65.2
2024-01-11T09:54:01.722Z,63.9
2024-01-11T09:55:18.827Z,62.1
2024-01-11T09:56:35.931Z,60.4
2024-01-11T09:57:53.036Z,60.4
2024-01-11T09:59:10.140Z,57.8
2024-01-11T10:00:27.245Z,65.7
2024-01-11T10:01:44.349Z,65.2
2024-01-11T10:03:00.469Z,64.6
2024-01-11T10:04:17.574Z,60.1
2024-01-11T10:05:34.678Z,61.2
2024-01-11T10:06:51.783Z,63.4
2024-01-11T10:08:08.887Z,67
2024-01-11T10:09:25.991Z,62
2024-01-11T10:10:43.095Z,59.4
2024-01-11T10:12:00.200Z,60.1
2024-01-11T10:13:17.304Z,56.8
2024-01-11T10:14:34.408Z,62.1
2024-01-11T10:15:51.513Z,65.7
2024-01-11T10:17:08.617Z,58.8
2024-01-11T10:18:25.721Z,67.9
2024-01-11T10:19:41.842Z,67.5
2024-01-11T10:20:58.946Z,66
2024-01-11T10:22:16.050Z,61
2024-01-11T10:23:33.155Z,58.8
2024-01-11T10:24:50.259Z,64.7
2024-01-11T10:26:07.363Z,58.9
2024-01-11T10:27:24.468Z,64.7
2024-01-11T10:28:41.572Z,66.5
2024-01-11T10:29:58.677Z,63
2024-01-11T10:31:15.781Z,59.7
2024-01-11T10:32:32.886Z,59.1
2024-01-11T10:33:49.990Z,60.5
2024-01-11T10:35:07.095Z,66.5
2024-01-11T10:36:23.216Z,63.1
2024-01-11T10:37:40.320Z,64.9
2024-01-11T10:38:57.425Z,61.8
2024-01-11T10:40:14.530Z,60.1
2024-01-11T10:41:31.634Z,57
2024-01-11T10:42:48.739Z,58.8
2024-01-11T10:44:05.844Z,65.2
2024-01-11T10:45:22.949Z,66.2
2024-01-11T10:46:40.054Z,61.7
2024-01-11T10:47:57.158Z,61.2
2024-01-11T10:49:14.261Z,57.8
2024-01-11T10:50:31.366Z,66.2
2024-01-11T10:51:48.471Z,64.4
2024-01-11T10:53:04.592Z,62.6
2024-01-11T10:54:21.696Z,62.8
2024-01-11T10:55:38.801Z,67.9
2024-01-11T10:56:55.906Z,57.3
2024-01-11T10:58:13.011Z,62.3
2024-01-11T10:59:30.115Z,67.9
2024-01-11T11:00:46.236Z,64.7
2024-01-11T11:02:03.341Z,82.6
2024-01-11T11:03:20.446Z,78.4
2024-01-11T11:04:37.551Z,65.4
2024-01-11T11:05:54.656Z,61
2024-01-11T11:07:11.761Z,65.4
2024-01-11T11:08:28.866Z,67.3
2024-01-11T11:09:45.971Z,69.9
2024-01-11T11:11:03.076Z,66.3
2024-01-11T11:12:20.181Z,64.9
2024-01-11T11:13:37.286Z,63.9
2024-01-11T11:14:54.391Z,65
2024-01-11T11:16:11.496Z,66.8
2024-01-11T11:17:27.617Z,70.2
2024-01-11T11:18:44.722Z,65.7
2024-01-11T11:20:01.827Z,66
2024-01-11T11:21:18.932Z,67.9
2024-01-11T11:22:36.037Z,69.2
2024-01-11T11:23:53.142Z,63.1
2024-01-11T11:25:10.247Z,59.9
2024-01-11T11:26:27.352Z,58.9
2024-01-11T11:27:44.457Z,65.2
2024-01-11T11:29:01.561Z,61.7
2024-01-11T11:30:18.666Z,62.5
2024-01-11T11:31:35.771Z,62.8
2024-01-11T11:32:52.876Z,58.3
2024-01-11T11:34:08.997Z,59.7
2024-01-11T11:35:26.102Z,63.9
2024-01-11T11:36:43.207Z,62.1
2024-01-11T11:38:00.312Z,55.7
2024-01-11T11:39:17.417Z,57.2
2024-01-11T11:40:34.521Z,59.4
2024-01-11T11:41:51.626Z,66
2024-01-11T11:43:08.731Z,65.7
2024-01-11T11:44:25.836Z,59.7
2024-01-11T11:45:42.941Z,59.7
2024-01-11T11:47:00.046Z,58.4
2024-01-11T11:48:17.151Z,61.7
2024-01-11T11:49:34.256Z,59.7
2024-01-11T11:50:50.376Z,59.4
2024-01-11T11:52:07.481Z,64.6
2024-01-11T11:53:24.586Z,61.5
2024-01-11T11:54:41.691Z,57.8
2024-01-11T11:55:58.796Z,61
2024-01-11T11:57:15.900Z,65.7
2024-01-11T11:58:33.005Z,62.1
2024-01-11T11:59:50.110Z,57.2
2024-01-11T12:01:07.215Z,64.9
2024-01-11T12:02:24.321Z,65.7
2024-01-11T12:03:41.426Z,59.2
2024-01-11T12:04:58.530Z,59.9
2024-01-11T12:06:15.635Z,59.2
2024-01-11T12:07:31.756Z,63.3
2024-01-11T12:08:48.861Z,63
2024-01-11T12:10:05.966Z,65.4
2024-01-11T12:11:23.071Z,64.9
2024-01-11T12:12:40.176Z,63.4
2024-01-11T12:13:57.281Z,64.1
2024-01-11T12:15:14.386Z,63.8
2024-01-11T12:16:31.491Z,66.2
2024-01-11T12:17:48.596Z,60.1
2024-01-11T12:19:05.700Z,63.4
2024-01-11T12:20:22.806Z,60.7
2024-01-11T12:21:39.910Z,67
2024-01-11T12:22:57.015Z,64.9
2024-01-11T12:24:13.136Z,67.1
2024-01-11T12:25:30.241Z,63.1
2024-01-11T12:26:47.345Z,57.3
2024-01-11T12:28:04.450Z,59.4
2024-01-11T12:29:21.555Z,64.6
2024-01-11T12:30:38.661Z,57.8
2024-01-11T12:31:55.766Z,66.5
2024-01-11T12:33:12.870Z,55.5
2024-01-11T12:34:29.975Z,61.3
2024-01-11T12:35:47.080Z,63.8
2024-01-11T12:37:04.185Z,61.7
2024-01-11T12:38:21.290Z,64.2
2024-01-11T12:39:38.394Z,60.1
2024-01-11T12:40:54.515Z,62.3
2024-01-11T12:42:11.621Z,64.4
2024-01-11T12:43:28.726Z,59.7
2024-01-11T12:44:45.831Z,58.6
2024-01-11T12:46:02.936Z,67.8
2024-01-11T12:47:20.040Z,63.9
2024-01-11T12:48:37.145Z,60.7
2024-01-11T12:49:54.250Z,63.4
2024-01-11T12:51:11.355Z,60.7
2024-01-11T12:52:28.459Z,62.8
2024-01-11T12:53:45.564Z,60.4
2024-01-11T12:55:02.669Z,58.8
2024-01-11T12:56:19.774Z,59.9
2024-01-11T12:57:35.895Z,61.3
2024-01-11T12:58:53.000Z,60.4
2024-01-11T13:00:10.104Z,76.8
2024-01-11T13:01:27.209Z,60.2
2024-01-11T13:02:44.314Z,63.4
2024-01-11T13:04:01.419Z,57.6
2024-01-11T13:05:18.525Z,59.9
2024-01-11T13:06:35.629Z,63.8
2024-01-11T13:07:52.734Z,66.5
2024-01-11T13:09:09.839Z,63.4
2024-01-11T13:10:26.944Z,61.2
2024-01-11T13:11:44.049Z,62
2024-01-11T13:13:01.153Z,59.2
2024-01-11T13:14:17.274Z,62.8
2024-01-11T13:15:34.379Z,62
2024-01-11T13:16:51.484Z,64.1
2024-01-11T13:18:08.589Z,64.7
2024-01-11T13:19:25.694Z,65.5
2024-01-11T13:20:42.799Z,63.3
2024-01-11T13:21:59.903Z,61.8
2024-01-11T13:23:17.008Z,60.5
2024-01-11T13:24:34.113Z,65.5
2024-01-11T13:25:51.218Z,63.3
2024-01-11T13:27:08.323Z,64.4
2024-01-11T13:28:25.428Z,67.9
2024-01-11T13:29:42.532Z,60.7
2024-01-11T13:30:58.653Z,58.1
2024-01-11T13:32:15.758Z,60.2
2024-01-11T13:33:32.863Z,57.6
2024-01-11T13:34:49.967Z,59.4
2024-01-11T13:36:07.072Z,62.5
2024-01-11T13:37:24.177Z,62.6
2024-01-11T13:38:41.282Z,58.3
2024-01-11T13:39:58.387Z,64.9
2024-01-11T13:41:15.492Z,59.7
2024-01-11T13:42:32.596Z,62.1
2024-01-11T13:43:49.701Z,58.6
2024-01-11T13:45:06.806Z,71.5
2024-01-11T13:46:23.912Z,57.8
2024-01-11T13:47:40.033Z,62.1
2024-01-11T13:48:57.137Z,62.6
2024-01-11T13:50:14.242Z,63
2024-01-11T13:51:31.347Z,61.3
2024-01-11T13:52:48.452Z,64.4
2024-01-11T13:54:05.557Z,59.4
2024-01-11T13:55:22.661Z,60.1
2024-01-11T13:56:39.766Z,55.4
2024-01-11T13:57:56.872Z,62.8
2024-01-11T13:59:13.977Z,62.1
2024-01-11T14:00:31.082Z,62.6
2024-01-11T14:01:48.186Z,62.6
2024-01-11T14:03:05.291Z,64.9
2024-01-11T14:04:21.412Z,64.7
2024-01-11T14:05:38.517Z,60.4
2024-01-11T14:06:55.622Z,62.1
2024-01-11T14:08:12.727Z,58.9
2024-01-11T14:09:29.831Z,58.3
2024-01-11T14:10:46.936Z,58.4
2024-01-11T14:12:04.041Z,59.7
2024-01-11T14:13:21.146Z,60.2
2024-01-11T14:14:38.251Z,63.1
2024-01-11T14:15:55.355Z,58.8
2024-01-11T14:17:12.460Z,55.9
2024-01-11T14:18:29.565Z,59.1
2024-01-11T14:19:46.670Z,58.4
2024-01-11T14:21:02.791Z,57.6
2024-01-11T14:22:19.895Z,60.4
2024-01-11T14:23:37.001Z,62.1
2024-01-11T14:24:54.105Z,62.6
2024-01-11T14:26:11.210Z,65.2
2024-01-11T14:27:28.315Z,59.4
2024-01-11T14:28:45.420Z,58.6
2024-01-11T14:30:02.525Z,75.5
2024-01-11T14:31:19.629Z,63.3
2024-01-11T14:32:36.734Z,62.6
2024-01-11T14:33:53.839Z,60.9
2024-01-11T14:35:10.944Z,62.6
2024-01-11T14:36:28.049Z,60.1
2024-01-11T14:37:44.170Z,59.1
2024-01-11T14:39:01.274Z,59.9
2024-01-11T14:40:18.379Z,66.2
2024-01-11T14:41:35.484Z,63.1
2024-01-11T14:42:52.589Z,61.3
2024-01-11T14:44:09.694Z,66.7
2024-01-11T14:45:26.799Z,58.9
2024-01-11T14:46:43.904Z,59.1
2024-01-11T14:48:01.008Z,60.4
2024-01-11T14:49:18.113Z,59.2
2024-01-11T14:50:35.218Z,59.6
2024-01-11T14:51:52.323Z,60.1
2024-01-11T14:53:09.428Z,63.9
2024-01-11T14:54:25.549Z,59.2
2024-01-11T14:55:42.653Z,62.5
2024-01-11T14:56:59.759Z,62.6
2024-01-11T14:58:16.863Z,61.8
2024-01-11T14:59:33.968Z,63.1
2024-01-11T15:00:51.073Z,60.7
2024-01-11T15:02:08.178Z,60.4
2024-01-11T15:03:25.283Z,60.1
2024-01-11T15:04:42.387Z,60.7
2024-01-11T15:05:59.493Z,66.3
2024-01-11T15:07:16.599Z,65.4
2024-01-11T15:08:33.703Z,61.2
2024-01-11T15:09:50.808Z,62.3
2024-01-11T15:11:06.929Z,60.2
2024-01-11T15:12:24.035Z,60.1
2024-01-11T15:13:41.140Z,59.1
2024-01-11T15:14:58.245Z,63.8
2024-01-11T15:16:15.350Z,62.3
2024-01-11T15:17:32.455Z,62.6
2024-01-11T15:18:48.576Z,64.9
2024-01-11T15:20:05.681Z,66.3
2024-01-11T15:21:22.786Z,61.2
2024-01-11T15:22:39.891Z,59.2
2024-01-11T15:23:56.996Z,57.6
2024-01-11T15:25:14.101Z,59.7
2024-01-11T15:26:31.205Z,61.8
2024-01-11T15:27:48.310Z,60.1
2024-01-11T15:29:05.415Z,59.1
2024-01-11T15:30:22.521Z,59.2
2024-01-11T15:31:39.625Z,58.3
2024-01-11T15:32:56.730Z,57.8
2024-01-11T15:34:13.835Z,61.7
2024-01-11T15:35:29.957Z,62
2024-01-11T15:36:47.061Z,62
2024-01-11T15:38:04.166Z,60.5
2024-01-11T15:39:21.271Z,65.7
2024-01-11T15:40:38.376Z,60.9
2024-01-11T15:41:55.481Z,63.9
2024-01-11T15:43:12.586Z,64.4
2024-01-11T15:44:29.691Z,59.7
2024-01-11T15:45:46.796Z,56.5
2024-01-11T15:47:03.901Z,56.7
2024-01-11T15:48:21.006Z,59.4
2024-01-11T15:49:38.111Z,61.2
2024-01-11T15:50:55.216Z,65.5
2024-01-11T15:52:11.337Z,63.4
2024-01-11T15:53:28.442Z,61.7
2024-01-11T15:54:45.547Z,61.8
2024-01-11T15:56:02.652Z,63.3
2024-01-11T15:57:19.758Z,62
2024-01-11T15:58:36.863Z,60.9
2024-01-11T15:59:53.968Z,62.6
2024-01-11T16:01:11.073Z,63
2024-01-11T16:02:28.178Z,60.2
2024-01-11T16:03:45.284Z,63.6
2024-01-11T16:05:02.389Z,60.7
2024-01-11T16:06:19.494Z,59.2
2024-01-11T16:07:36.599Z,60.5
2024-01-11T16:08:52.720Z,61.7
2024-01-11T16:10:09.825Z,58.4
2024-01-11T16:11:26.930Z,60.9
2024-01-11T16:12:44.036Z,60.7
2024-01-11T16:14:01.141Z,60.4
2024-01-11T16:15:18.246Z,59.4
2024-01-11T16:16:35.352Z,64.1
2024-01-11T16:17:52.457Z,60.9
2024-01-11T16:19:09.562Z,54.4
2024-01-11T16:20:26.667Z,58.6
2024-01-11T16:21:43.773Z,60.1
2024-01-11T16:23:00.878Z,63.3
2024-01-11T16:24:17.983Z,60.1
2024-01-11T16:25:34.104Z,58.4
2024-01-11T16:26:51.210Z,64.7
2024-01-11T16:28:08.315Z,63.9
2024-01-11T16:29:25.420Z,62.1
2024-01-11T16:30:42.526Z,62.6
2024-01-11T16:31:59.631Z,59.7
2024-01-11T16:33:16.736Z,63.1
2024-01-11T16:34:33.841Z,60.2
2024-01-11T16:35:50.947Z,62
2024-01-11T16:37:08.052Z,63.9
2024-01-11T16:38:25.157Z,62.3
2024-01-11T16:39:42.263Z,55.1
2024-01-11T16:40:59.368Z,64.2
2024-01-11T16:42:15.489Z,63
2024-01-11T16:43:32.594Z,67.6
2024-01-11T16:44:49.699Z,59.9
2024-01-11T16:46:06.805Z,56
2024-01-11T16:47:23.910Z,60.2
2024-01-11T16:48:41.016Z,64.2
2024-01-11T16:49:58.121Z,61.2
2024-01-11T16:51:15.226Z,61.3
2024-01-11T16:52:32.332Z,65.4
2024-01-11T16:53:49.437Z,62.1
2024-01-11T16:55:06.542Z,63
2024-01-11T16:56:23.648Z,56.3
2024-01-11T16:57:40.753Z,65.7
2024-01-11T16:58:56.874Z,61.7
2024-01-11T17:00:13.980Z,58.4
2024-01-11T17:01:31.085Z,74.2
2024-01-11T17:02:48.190Z,77.6
2024-01-11T17:04:05.296Z,64.1
2024-01-11T17:05:22.401Z,60.1
2024-01-11T17:06:39.506Z,63
2024-01-11T17:07:56.611Z,61.8
2024-01-11T17:09:13.716Z,63.8
2024-01-11T17:10:30.821Z,58.6
2024-01-11T17:11:47.927Z,64.6